sensor_id;sensor_type;location;lat;lon;timestamp;P1;durP1;ratioP1;P2;durP2;ratioP2
40629;SDS011;26329;40.388;-3.710;2024-03-22T00:07:07;101.33;;;29.37;;
40629;SDS011;26329;40.388;-3.710;2024-03-22T00:17:09;101.17;;;29.23;;
40629;SDS011;26329;40.388;-3.710;2024-03-22T00:27:10;98.97;;;28.87;;
40629;SDS011;26329;40.388;-3.710;2024-03-22T00:37:13;100.77;;;29.33;;
40629;SDS011;26329;40.388;-3.710;2024-03-22T00:47:14;99.87;;;29.17;;
40629;SDS011;26329;40.388;-3.710;2024-03-22T00:57:15;100.20;;;29.13;;
40629;SDS011;26329;40.388;-3.710;2024-03-22T01:07:17;100.80;;;29.23;;
40629;SDS011;26329;40.388;-3.710;2024-03-22T01:17:19;101.17;;;29.60;;
40629;SDS011;26329;40.388;-3.710;2024-03-22T01:27:22;99.20;;;29.42;;
40629;SDS011;26329;40.388;-3.710;2024-03-22T01:37:23;100.33;;;29.20;;
40629;SDS011;26329;40.388;-3.710;2024-03-22T01:47:25;100.17;;;29.23;;
40629;SDS011;26329;40.388;-3.710;2024-03-22T01:57:27;100.40;;;29.30;;
40629;SDS011;26329;40.388;-3.710;2024-03-22T02:07:29;99.47;;;29.13;;
40629;SDS011;26329;40.388;-3.710;2024-03-22T02:17:31;97.23;;;29.10;;
40629;SDS011;26329;40.388;-3.710;2024-03-22T02:27:33;99.83;;;29.53;;
40629;SDS011;26329;40.388;-3.710;2024-03-22T02:37:35;95.33;;;28.30;;
40629;SDS011;26329;40.388;-3.710;2024-03-22T02:47:36;96.77;;;29.10;;
40629;SDS011;26329;40.388;-3.710;2024-03-22T02:57:38;95.97;;;28.70;;
40629;SDS011;26329;40.388;-3.710;2024-03-22T03:07:39;96.57;;;28.97;;
40629;SDS011;26329;40.388;-3.710;2024-03-22T03:17:41;95.97;;;28.73;;
40629;SDS011;26329;40.388;-3.710;2024-03-22T03:27:42;95.07;;;28.43;;
40629;SDS011;26329;40.388;-3.710;2024-03-22T03:37:44;96.07;;;29.00;;
40629;SDS011;26329;40.388;-3.710;2024-03-22T03:47:45;95.63;;;28.77;;
40629;SDS011;26329;40.388;-3.710;2024-03-22T03:57:47;94.53;;;28.50;;
40629;SDS011;26329;40.388;-3.710;2024-03-22T04:07:48;94.97;;;28.77;;
40629;SDS011;26329;40.388;-3.710;2024-03-22T04:17:50;95.63;;;28.70;;
40629;SDS011;26329;40.388;-3.710;2024-03-22T04:27:51;95.87;;;28.63;;
40629;SDS011;26329;40.388;-3.710;2024-03-22T04:37:53;96.67;;;29.07;;
40629;SDS011;26329;40.388;-3.710;2024-03-22T04:47:54;96.20;;;29.03;;
40629;SDS011;26329;40.388;-3.710;2024-03-22T04:57:56;95.33;;;29.03;;
40629;SDS011;26329;40.388;-3.710;2024-03-22T05:07:58;94.40;;;28.70;;
40629;SDS011;26329;40.388;-3.710;2024-03-22T05:17:59;94.43;;;28.73;;
40629;SDS011;26329;40.388;-3.710;2024-03-22T05:28:01;94.77;;;28.87;;
40629;SDS011;26329;40.388;-3.710;2024-03-22T05:38:02;92.27;;;28.30;;
40629;SDS011;26329;40.388;-3.710;2024-03-22T05:48:04;91.23;;;27.97;;
40629;SDS011;26329;40.388;-3.710;2024-03-22T05:58:06;92.20;;;28.30;;
40629;SDS011;26329;40.388;-3.710;2024-03-22T06:08:07;91.97;;;28.33;;
40629;SDS011;26329;40.388;-3.710;2024-03-22T06:18:09;91.83;;;28.23;;
40629;SDS011;26329;40.388;-3.710;2024-03-22T06:28:10;91.50;;;28.07;;
40629;SDS011;26329;40.388;-3.710;2024-03-22T06:38:12;92.23;;;28.30;;
40629;SDS011;26329;40.388;-3.710;2024-03-22T06:48:14;91.37;;;28.00;;
40629;SDS011;26329;40.388;-3.710;2024-03-22T06:58:15;90.57;;;27.97;;
40629;SDS011;26329;40.388;-3.710;2024-03-22T07:08:17;90.77;;;27.97;;
40629;SDS011;26329;40.388;-3.710;2024-03-22T07:18:19;91.47;;;28.07;;
40629;SDS011;26329;40.388;-3.710;2024-03-22T07:28:20;90.83;;;27.70;;
40629;SDS011;26329;40.388;-3.710;2024-03-22T07:38:22;94.23;;;28.70;;
40629;SDS011;26329;40.388;-3.710;2024-03-22T07:48:23;95.63;;;28.97;;
40629;SDS011;26329;40.388;-3.710;2024-03-22T07:58:25;97.63;;;28.97;;
40629;SDS011;26329;40.388;-3.710;2024-03-22T08:08:26;99.50;;;29.43;;
40629;SDS011;26329;40.388;-3.710;2024-03-22T08:18:28;101.13;;;29.47;;
40629;SDS011;26329;40.388;-3.710;2024-03-22T08:28:29;101.93;;;29.53;;
40629;SDS011;26329;40.388;-3.710;2024-03-22T08:38:31;102.97;;;29.57;;
40629;SDS011;26329;40.388;-3.710;2024-03-22T08:48:32;106.23;;;30.07;;
40629;SDS011;26329;40.388;-3.710;2024-03-22T08:58:34;106.83;;;29.93;;
40629;SDS011;26329;40.388;-3.710;2024-03-22T09:08:35;108.03;;;30.03;;
40629;SDS011;26329;40.388;-3.710;2024-03-22T09:18:37;109.03;;;30.03;;
40629;SDS011;26329;40.388;-3.710;2024-03-22T09:28:38;109.87;;;30.30;;
40629;SDS011;26329;40.388;-3.710;2024-03-22T09:38:40;110.10;;;30.27;;
40629;SDS011;26329;40.388;-3.710;2024-03-22T09:48:42;112.17;;;30.50;;
40629;SDS011;26329;40.388;-3.710;2024-03-22T09:58:44;113.47;;;30.63;;
40629;SDS011;26329;40.388;-3.710;2024-03-22T10:08:46;115.03;;;30.60;;
40629;SDS011;26329;40.388;-3.710;2024-03-22T10:18:47;113.97;;;29.87;;
40629;SDS011;26329;40.388;-3.710;2024-03-22T10:28:49;118.73;;;30.97;;
40629;SDS011;26329;40.388;-3.710;2024-03-22T10:38:50;118.03;;;30.70;;
40629;SDS011;26329;40.388;-3.710;2024-03-22T10:48:54;119.23;;;30.77;;
40629;SDS011;26329;40.388;-3.710;2024-03-22T10:58:56;119.20;;;30.33;;
40629;SDS011;26329;40.388;-3.710;2024-03-22T11:09:00;126.68;;;31.92;;
40629;SDS011;26329;40.388;-3.710;2024-03-22T11:19:04;120.30;;;30.43;;
40629;SDS011;26329;40.388;-3.710;2024-03-22T11:29:06;118.77;;;29.90;;
40629;SDS011;26329;40.388;-3.710;2024-03-22T11:39:09;126.90;;;32.37;;
40629;SDS011;26329;40.388;-3.710;2024-03-22T11:49:10;118.87;;;30.17;;
40629;SDS011;26329;40.388;-3.710;2024-03-22T11:59:12;115.97;;;29.73;;
40629;SDS011;26329;40.388;-3.710;2024-03-22T12:09:14;119.38;;;29.98;;
40629;SDS011;26329;40.388;-3.710;2024-03-22T12:19:15;123.20;;;30.40;;
40629;SDS011;26329;40.388;-3.710;2024-03-22T12:29:17;126.20;;;30.87;;
40629;SDS011;26329;40.388;-3.710;2024-03-22T12:39:18;125.40;;;30.77;;
40629;SDS011;26329;40.388;-3.710;2024-03-22T12:49:20;123.73;;;30.63;;
40629;SDS011;26329;40.388;-3.710;2024-03-22T12:59:22;118.40;;;29.38;;
40629;SDS011;26329;40.388;-3.710;2024-03-22T13:09:24;118.30;;;29.17;;
40629;SDS011;26329;40.388;-3.710;2024-03-22T13:19:25;122.18;;;30.30;;
40629;SDS011;26329;40.388;-3.710;2024-03-22T13:29:27;123.00;;;30.23;;
40629;SDS011;26329;40.388;-3.710;2024-03-22T13:39:29;120.70;;;29.92;;
40629;SDS011;26329;40.388;-3.710;2024-03-22T13:49:30;118.07;;;29.10;;
40629;SDS011;26329;40.388;-3.710;2024-03-22T13:59:32;117.15;;;29.15;;
40629;SDS011;26329;40.388;-3.710;2024-03-22T14:09:34;124.32;;;30.88;;
40629;SDS011;26329;40.388;-3.710;2024-03-22T14:19:36;118.35;;;29.20;;
40629;SDS011;26329;40.388;-3.710;2024-03-22T14:29:37;123.60;;;30.88;;
40629;SDS011;26329;40.388;-3.710;2024-03-22T14:39:39;119.93;;;29.73;;
40629;SDS011;26329;40.388;-3.710;2024-03-22T14:49:43;121.60;;;30.33;;
40629;SDS011;26329;40.388;-3.710;2024-03-22T14:59:45;120.68;;;29.83;;
40629;SDS011;26329;40.388;-3.710;2024-03-22T15:09:48;120.60;;;29.58;;
40629;SDS011;26329;40.388;-3.710;2024-03-22T15:19:51;116.70;;;28.60;;
40629;SDS011;26329;40.388;-3.710;2024-03-22T15:29:54;110.25;;;27.23;;
40629;SDS011;26329;40.388;-3.710;2024-03-22T15:39:55;115.85;;;28.38;;
40629;SDS011;26329;40.388;-3.710;2024-03-22T15:59:58;119.30;;;30.33;;
40629;SDS011;26329;40.388;-3.710;2024-03-22T16:20:03;117.65;;;29.90;;
40629;SDS011;26329;40.388;-3.710;2024-03-22T16:30:05;123.38;;;30.45;;
40629;SDS011;26329;40.388;-3.710;2024-03-22T16:40:07;121.68;;;30.25;;
40629;SDS011;26329;40.388;-3.710;2024-03-22T16:50:09;120.55;;;30.15;;
40629;SDS011;26329;40.388;-3.710;2024-03-22T17:00:11;120.32;;;29.80;;
40629;SDS011;26329;40.388;-3.710;2024-03-22T17:30:19;106.72;;;29.25;;
40629;SDS011;26329;40.388;-3.710;2024-03-22T17:40:21;123.90;;;31.27;;
40629;SDS011;26329;40.388;-3.710;2024-03-22T17:50:22;121.50;;;30.60;;
40629;SDS011;26329;40.388;-3.710;2024-03-22T18:00:24;122.45;;;30.63;;
40629;SDS011;26329;40.388;-3.710;2024-03-22T18:10:25;123.43;;;31.10;;
40629;SDS011;26329;40.388;-3.710;2024-03-22T18:20:28;121.13;;;30.38;;
40629;SDS011;26329;40.388;-3.710;2024-03-22T18:30:29;121.03;;;30.42;;
40629;SDS011;26329;40.388;-3.710;2024-03-22T18:40:31;119.05;;;29.83;;
40629;SDS011;26329;40.388;-3.710;2024-03-22T18:50:32;118.90;;;30.03;;
40629;SDS011;26329;40.388;-3.710;2024-03-22T19:00:35;124.37;;;31.93;;
40629;SDS011;26329;40.388;-3.710;2024-03-22T19:10:39;125.30;;;31.90;;
40629;SDS011;26329;40.388;-3.710;2024-03-22T19:20:41;115.30;;;29.70;;
40629;SDS011;26329;40.388;-3.710;2024-03-22T19:30:43;114.60;;;29.80;;
40629;SDS011;26329;40.388;-3.710;2024-03-22T19:40:44;120.73;;;31.23;;
40629;SDS011;26329;40.388;-3.710;2024-03-22T19:50:46;113.30;;;29.90;;
40629;SDS011;26329;40.388;-3.710;2024-03-22T20:00:48;115.77;;;30.63;;
40629;SDS011;26329;40.388;-3.710;2024-03-22T20:10:51;109.68;;;29.77;;
40629;SDS011;26329;40.388;-3.710;2024-03-22T20:20:52;114.97;;;30.63;;
40629;SDS011;26329;40.388;-3.710;2024-03-22T20:30:54;112.83;;;30.33;;
